createdAt,value
2022-09-27T00:00:07.893Z,1.40
2022-09-27T00:05:07.962Z,1.60
2022-09-27T00:10:07.672Z,1.65
2022-09-27T00:15:08.375Z,2.40
2022-09-27T00:20:08.060Z,2.00
2022-09-27T00:25:07.816Z,2.08
2022-09-27T00:30:08.458Z,2.00
2022-09-27T00:35:08.182Z,2.38
2022-09-27T00:40:07.931Z,1.98
2022-09-27T00:45:08.617Z,1.70
2022-09-27T00:50:08.331Z,2.28
2022-09-27T00:55:08.097Z,2.33
2022-09-27T01:00:07.774Z,2.30
2022-09-27T01:05:08.477Z,2.00
2022-09-27T01:10:08.188Z,2.17
2022-09-27T01:15:07.886Z,2.08
2022-09-27T01:20:18.553Z,0
2022-09-27T01:25:08.222Z,1.92
2022-09-27T01:30:07.894Z,1.63
2022-09-27T01:35:08.599Z,1.50
2022-09-27T01:40:08.314Z,1.48
2022-09-27T01:45:08.029Z,1.40
2022-09-27T01:50:15.801Z,1.13
2022-09-27T01:55:08.546Z,1.20
2022-09-27T02:00:08.260Z,1.40
2022-09-27T02:05:07.932Z,1.20
2022-09-27T02:10:08.663Z,1.30
2022-09-27T02:15:08.359Z,1.10
2022-09-27T02:20:08.074Z,1.30
2022-09-27T02:25:07.778Z,1.13
2022-09-27T02:30:08.491Z,1.40
2022-09-27T02:35:08.167Z,1.20
2022-09-27T02:40:07.875Z,0.95
2022-09-27T02:45:08.593Z,1.05
2022-09-27T02:50:08.638Z,1.20
2022-09-27T02:55:08.363Z,1.20
2022-09-27T03:00:18.078Z,0
2022-09-27T03:05:07.770Z,1.25
2022-09-27T03:10:08.481Z,1.50
2022-09-27T03:15:08.230Z,1.45
2022-09-27T03:20:07.921Z,1.55
2022-09-27T03:25:07.601Z,1.00
2022-09-27T03:30:08.373Z,1.13
2022-09-27T03:35:08.111Z,1.10
2022-09-27T03:40:07.836Z,1.23
2022-09-27T03:45:08.522Z,1.15
2022-09-27T03:50:08.190Z,1.20
2022-09-27T03:55:07.916Z,1.10
2022-09-27T04:00:08.596Z,1.20
2022-09-27T04:05:03.733Z,1.40
2022-09-27T04:10:03.905Z,1.25
2022-09-27T04:15:02.994Z,1.20
2022-09-27T04:20:02.123Z,1.30
2022-09-27T04:25:02.144Z,1.40
2022-09-27T04:30:02.708Z,1.58
2022-09-27T04:35:02.544Z,1.65
2022-09-27T04:40:02.394Z,1.20
2022-09-27T04:45:02.298Z,1.20
2022-09-27T04:50:02.384Z,1.85
2022-09-27T04:55:02.187Z,1.40
2022-09-27T05:00:01.993Z,1.30
2022-09-27T05:05:01.872Z,1.27
2022-09-27T05:10:02.780Z,1.40
2022-09-27T05:15:02.568Z,1.40
2022-09-27T05:20:02.456Z,1.73
2022-09-27T05:25:02.271Z,1.25
2022-09-27T05:30:02.202Z,1.92
2022-09-27T05:35:02.077Z,1.33
2022-09-27T05:40:17.032Z,1.20
2022-09-27T05:45:02.529Z,1.55
2022-09-27T05:50:02.588Z,1.45
2022-09-27T05:55:02.514Z,1.45
2022-09-27T06:00:02.380Z,1.35
2022-09-27T06:05:02.322Z,1.45
2022-09-27T06:10:02.170Z,1.05
2022-09-27T06:15:02.051Z,1.70
2022-09-27T06:20:01.915Z,1.42
2022-09-27T06:25:03.074Z,1.00
2022-09-27T06:30:02.334Z,1.10
2022-09-27T06:35:02.422Z,1.10
2022-09-27T06:40:02.536Z,0.80
2022-09-27T06:45:02.478Z,1.20
2022-09-27T06:50:02.681Z,1.20
2022-09-27T06:55:02.872Z,0.90
2022-09-27T07:00:02.801Z,1.00
2022-09-27T07:05:03.108Z,0.90
2022-09-27T07:10:04.161Z,1.10
2022-09-27T07:15:02.319Z,1.20
2022-09-27T07:20:02.307Z,0.80
2022-09-27T07:25:02.074Z,0.75
2022-09-27T07:30:02.055Z,0.90
2022-09-27T07:35:01.940Z,1.00
2022-09-27T07:40:01.999Z,0.85
2022-09-27T07:45:03.400Z,0.80
2022-09-27T07:50:02.056Z,0.77
2022-09-27T07:55:02.110Z,1.00
2022-09-27T08:00:02.117Z,1.02
2022-09-27T08:05:01.998Z,1.17
2022-09-27T08:10:02.012Z,1.05
2022-09-27T08:15:01.859Z,0.90
2022-09-27T08:20:02.783Z,0.98
2022-09-27T08:25:02.746Z,0.90
2022-09-27T08:30:02.629Z,0.90
2022-09-27T08:35:02.518Z,0.93
2022-09-27T08:40:02.427Z,1.20
2022-09-27T08:45:03.550Z,0.85
2022-09-27T08:50:02.710Z,0.80
2022-09-27T08:55:02.602Z,0.80
2022-09-27T09:00:02.463Z,1.00
2022-09-27T09:05:02.368Z,1.35
2022-09-27T09:10:02.373Z,1.20
2022-09-27T09:15:02.500Z,1.20
2022-09-27T09:20:02.823Z,1.45
2022-09-27T09:25:02.897Z,1.20
2022-09-27T09:30:02.962Z,1.40
2022-09-27T09:35:11.951Z,1.70
2022-09-27T09:40:06.680Z,1.83
2022-09-27T09:45:02.719Z,1.48
2022-09-27T09:50:02.669Z,1.63
2022-09-27T09:55:02.683Z,2.50
2022-09-27T10:00:02.584Z,1.90
2022-09-27T10:05:07.489Z,2.10
2022-09-27T10:10:02.242Z,2.13
2022-09-27T10:15:02.084Z,2.13
2022-09-27T10:20:01.964Z,1.60
2022-09-27T10:25:01.787Z,2.42
2022-09-27T10:30:02.833Z,1.90
2022-09-27T10:35:02.674Z,1.90
2022-09-27T10:40:02.627Z,2.28
2022-09-27T10:45:02.530Z,1.83
2022-09-27T10:50:02.486Z,2.20
2022-09-27T10:55:07.176Z,2.20
2022-09-27T11:00:03.096Z,2.50
2022-09-27T11:05:15.063Z,0
2022-09-27T11:10:02.512Z,2.35
2022-09-27T11:15:02.380Z,2.08
2022-09-27T11:20:02.537Z,2.00
2022-09-27T11:25:02.426Z,2.22
2022-09-27T11:30:02.601Z,1.80
2022-09-27T11:35:02.502Z,1.70
2022-09-27T11:40:08.914Z,1.70
2022-09-27T11:45:32.069Z,1.95
2022-09-27T11:50:02.784Z,1.77
2022-09-27T11:55:02.784Z,1.80
2022-09-27T12:00:03.036Z,2.22
2022-09-27T12:05:01.853Z,1.80
2022-09-27T12:10:03.262Z,1.70
2022-09-27T12:15:06.892Z,1.30
2022-09-27T12:20:02.400Z,1.40
2022-09-27T12:25:02.491Z,1.33
2022-09-27T12:30:02.307Z,1.02
2022-09-27T12:35:02.308Z,1.20
2022-09-27T12:40:02.359Z,1.00
2022-09-27T12:45:02.408Z,1.20
2022-09-27T12:50:02.358Z,0.90
2022-09-27T12:55:02.332Z,1.02
2022-09-27T13:00:02.263Z,1.02
2022-09-27T13:05:02.222Z,1.05
2022-09-27T13:10:02.069Z,1.23
2022-09-27T13:15:02.134Z,1.00
2022-09-27T13:20:01.961Z,0.90
2022-09-27T13:25:01.906Z,0.80
2022-09-27T13:30:02.790Z,0.77
2022-09-27T13:35:02.654Z,0.68
2022-09-27T13:40:12.656Z,0
2022-09-27T13:45:02.568Z,0.60
2022-09-27T13:50:02.576Z,0.63
2022-09-27T13:55:02.368Z,0.50
2022-09-27T14:00:02.235Z,0.60
2022-09-27T14:05:02.455Z,0.50
2022-09-27T14:10:02.418Z,0.50
2022-09-27T14:15:02.461Z,0.60
2022-09-27T14:20:02.362Z,0.70
2022-09-27T14:25:02.427Z,0.70
2022-09-27T14:30:02.487Z,0.70
2022-09-27T14:35:02.530Z,0.90
2022-09-27T14:40:12.414Z,0
2022-09-27T14:45:02.642Z,0.70
2022-09-27T14:50:04.491Z,0.77
2022-09-27T14:55:03.090Z,0.80
2022-09-27T15:00:01.952Z,0.80
2022-09-27T15:05:01.987Z,0.80
2022-09-27T15:10:02.048Z,0.50
2022-09-27T15:15:01.897Z,0.77
2022-09-27T15:20:02.833Z,0.80
2022-09-27T15:25:02.769Z,0.80
2022-09-27T15:30:02.956Z,0.70
2022-09-27T15:35:01.905Z,0.57
2022-09-27T15:40:02.861Z,0.60
2022-09-27T15:45:02.812Z,0.80
2022-09-27T15:50:02.708Z,0.55
2022-09-27T15:55:02.644Z,0.70
2022-09-27T16:00:02.673Z,0.68
2022-09-27T16:05:02.512Z,0.70
2022-09-27T16:10:02.529Z,0.60
2022-09-27T16:15:02.469Z,0.70
2022-09-27T16:20:02.540Z,0.77
2022-09-27T16:25:02.540Z,0.80
2022-09-27T16:30:02.558Z,0.93
2022-09-27T16:35:02.876Z,0.80
2022-09-27T16:40:02.842Z,1.02
2022-09-27T16:45:07.427Z,0.95
2022-09-27T16:50:02.916Z,1.10
2022-09-27T16:55:02.757Z,0.90
2022-09-27T17:00:03.051Z,1.40
2022-09-27T17:05:01.933Z,1.30
2022-09-27T17:10:02.886Z,1.42
2022-09-27T17:15:02.878Z,1.48
2022-09-27T17:20:02.814Z,2.03
2022-09-27T17:25:02.857Z,1.33
2022-09-27T17:30:03.103Z,1.63
2022-09-27T17:35:02.062Z,1.95
2022-09-27T17:40:02.047Z,1.73
2022-09-27T17:45:01.974Z,1.60
2022-09-27T17:50:01.872Z,1.55
2022-09-27T17:55:02.646Z,1.60
2022-09-27T18:00:02.649Z,1.70
2022-09-27T18:05:02.472Z,1.70
2022-09-27T18:10:02.291Z,1.77
2022-09-27T18:15:02.160Z,1.60
2022-09-27T18:20:02.356Z,1.50
2022-09-27T18:25:02.255Z,1.95
2022-09-27T18:30:02.024Z,1.77
2022-09-27T18:35:01.935Z,1.80
2022-09-27T18:40:02.859Z,1.40
2022-09-27T18:45:03.068Z,1.50
2022-09-27T18:50:02.433Z,1.90
2022-09-27T18:55:02.308Z,1.52
2022-09-27T19:00:02.149Z,1.65
2022-09-27T19:05:01.991Z,1.67
2022-09-27T19:10:01.868Z,1.38
2022-09-27T19:15:02.654Z,1.70
2022-09-27T19:20:02.490Z,1.80
2022-09-27T19:25:02.375Z,1.65
2022-09-27T19:30:02.269Z,1.60
2022-09-27T19:35:02.074Z,1.83
2022-09-27T19:40:01.914Z,2.72
2022-09-27T19:45:06.794Z,5.32
2022-09-27T19:50:02.537Z,3.30
2022-09-27T19:55:02.449Z,3.10
2022-09-27T20:00:03.245Z,2.00
2022-09-27T20:05:02.166Z,1.90
2022-09-27T20:10:02.680Z,1.98
2022-09-27T20:15:02.618Z,1.67
2022-09-27T20:20:02.670Z,1.73
2022-09-27T20:25:02.722Z,1.58
2022-09-27T20:30:02.919Z,1.60
2022-09-27T20:35:15.632Z,1.98
2022-09-27T20:40:08.340Z,1.80
2022-09-27T20:45:08.160Z,1.90
2022-09-27T20:50:07.883Z,1.50
2022-09-27T20:55:08.578Z,1.60
2022-09-27T21:00:08.330Z,1.00
2022-09-27T21:05:08.043Z,1.20
2022-09-27T21:10:07.770Z,1.20
2022-09-27T21:15:08.486Z,1.30
2022-09-27T21:20:08.230Z,1.40
2022-09-27T21:25:07.918Z,1.17
2022-09-27T21:30:08.875Z,1.10
2022-09-27T21:35:08.590Z,1.08
2022-09-27T21:40:08.316Z,1.13
2022-09-27T21:45:08.040Z,0.90
2022-09-27T21:50:07.724Z,1.10
2022-09-27T21:55:08.418Z,1.17
2022-09-27T22:00:08.149Z,1.00
2022-09-27T22:05:07.842Z,1.30
2022-09-27T22:10:08.604Z,1.20
2022-09-27T22:15:08.323Z,1.10
2022-09-27T22:20:08.042Z,1.20
2022-09-27T22:25:07.749Z,0.98
2022-09-27T22:30:08.449Z,0.98
2022-09-27T22:35:08.126Z,1.08
2022-09-27T22:40:07.830Z,1.08
2022-09-27T22:45:08.519Z,1.20
2022-09-27T22:50:08.229Z,1.38
2022-09-27T22:55:08.014Z,1.38
2022-09-27T23:01:00.762Z,1.40
2022-09-27T23:05:08.575Z,1.35
2022-09-27T23:10:07.711Z,1.48
2022-09-27T23:15:08.490Z,1.80
2022-09-27T23:20:08.217Z,1.77
2022-09-27T23:25:07.936Z,2.03
2022-09-27T23:30:08.652Z,1.90
2022-09-27T23:35:08.344Z,2.00
2022-09-27T23:40:08.063Z,1.90
2022-09-27T23:45:07.738Z,1.83
2022-09-27T23:50:08.459Z,2.05
2022-09-27T23:55:08.179Z,1.88
